x

South Hatteras - 225 South Of Cape Hatteras (41002) Wave Buoy

11:50 - Mon 28th Jul 2014 All times are EDT. -4 hours from GMT.

  • Sig Wave height 6.2ft
  • Swell Direction
  • Peak Period 7s
  • Average Period 5s
  • Wind
    18mph, 22mph gusts
  • Sea Temp 81°f
  • Aire Temp 82°f
  • Sea Pressure 1014.7mb
  • South Hatteras - 225 South Of Cape Hatteras
  • South Hatteras - 225 South Of Cape Hatteras

More Historic Weather Station data

Upgrade to MSW Pro to gain access to the past 30 days of data for over 8000 Wavebouys and Weather Stations around the globe.

Join Pro

Comparision Forecast

View Surf forecast
   
lun 07/28 11:50 6ft 7s 5s 18 22 mph 1014.7mb 81f 82f
10:50 5.5ft 7s 5s 20 22 mph 1015mb 81f 82f
9:50 6ft 6s 5s 18 22 mph 1015.1mb 81f 82f
8:50 5.5ft 6s 5s 20 25 mph 1014.8mb 81f 82f
7:50 6ft 7s 5s 20 25 mph 1015mb 80f 82f
6:50 6ft 6s 5s 20 25 mph 1014.9mb 80f 81f
5:50 6ft 7s 5s 18 22 mph 1014.8mb 80f 81f
4:50 6ft 6s 5s 18 22 mph 1014.4mb 80f 81f
3:50 6ft 6s 5s 20 25 mph 1014mb 80f 81f
2:50 5.5ft 6s 5s 20 25 mph 1014.4mb 80f 81f
1:50 5ft 6s 5s 20 25 mph 1014.5mb 81f 81f
12:50 5ft 6s 5s 20 25 mph 1015.1mb 81f 81f
dom 07/27 11:50 5ft 6s 5s 20 25 mph 1015.6mb 81f 81f
9:50 4.5ft 6s 5s 20 25 mph 1015.8mb 81f 82f
8:50 4.5ft 9s 5s 20 22 mph 1015.5mb 81f 82f
7:50 4.5ft 8s 5s 16 20 mph 1015.7mb 81f 82f
6:50 4.5ft 8s 5s 18 22 mph 1015.4mb 81f 82f
5:50 4ft 8s 5s 18 20 mph 1015.8mb 81f 82f
4:50 4ft 8s 5s 16 20 mph 1015.8mb 81f 82f
3:50 4.5ft 8s 5s 18 20 mph 1016.1mb 81f 82f
2:50 4.5ft 6s 5s 16 18 mph 1016.7mb 81f 82f
1:50 5ft 6s 5s 18 22 mph 1016.7mb 81f 82f
12:50 4.5ft 8s 5s 20 25 mph 1016.8mb 81f 81f
11:50 5ft 6s 5s 16 20 mph 1017.6mb 81f 82f
10:50 4.5ft 6s 5s 7
mph
1017.9mb 81f 79f
9:50 4.5ft 6s 5s 20 22 mph 1017.4mb 81f 82f
8:50 4.5ft 6s 4s 20 22 mph 1017.6mb 81f 82f
7:50 4.5ft 6s 5s 20 25 mph 1017mb 81f 82f
6:50 4ft 6s 5s 18 22 mph 1017mb 81f 82f
5:50 4ft 6s 5s 18 20 mph 1016.7mb 81f 81f
4:50 3.5ft 7s 4s 20 22 mph 1016.5mb 81f 81f
3:50 4ft 7s 4s 18 20 mph 1016.6mb 81f 80f
2:50 3.5ft 8s 4s 20 22 mph 1016.7mb 81f 81f
1:50 3.5ft 6s 4s 20 22 mph 1017.6mb 81f 81f
12:50 3.5ft 6s 4s 20 25 mph 1017.8mb 81f 81f
sáb 07/26 11:50 3.5ft 7s 4s 20 22 mph 1018.2mb 81f 81f
10:50 4ft 6s 5s 18 22 mph 1018.4mb 81f 81f
9:50 3.5ft 7s 5s 18 22 mph 1018.1mb 81f 81f
8:50 3.5ft 6s 4s 16 18 mph 1017.7mb 82f 80f
7:50 3.5ft 7s 4s 16 18 mph 1017.5mb 82f 80f
6:50 3.5ft 5s 4s 18 20 mph 1016.7mb 82f 79f
5:50 3.5ft 6s 4s 18 20 mph 1017.4mb 82f 80f
4:50 4ft 6s 4s 20 25 mph 1017.5mb 82f 78f
3:50 3.5ft 7s 4s 20 22 mph 1018.2mb 82f 78f
2:50 3.5ft 7s 5s 16 20 mph 1019mb 82f 76f
1:50 4ft 7s 5s 11 16 mph 1019.5mb 82f 78f
12:50 4ft 7s 4s 16 18 mph 1019.7mb 82f 77f
11:50 3.5ft 6s 5s 13 16 mph 1019.7mb 82f 79f
10:50 3.5ft 6s 5s 16 18 mph 1019.7mb 82f 82f
9:50 3.5ft 7s 5s 16 18 mph 1019.4mb 82f 82f
8:50 3.5ft 7s 5s 16 20 mph 1018.9mb 82f 82f
7:50 4ft 7s 5s 18 20 mph 1018.2mb 82f 82f
6:50 3.5ft 7s 5s 16 20 mph 1018.2mb 82f 82f
5:50 4ft 7s 5s 16 18 mph 1018.3mb 82f 82f
4:50 4ft 6s 5s 16 18 mph 1017.9mb 82f 82f
3:50 3.5ft 7s 5s 11 18 mph 1017.8mb 82f 82f
2:50 4.5ft 7s 5s 13 16 mph 1018.2mb 82f 82f
1:50 4ft 7s 5s 11 13 mph 1018.8mb 82f 82f
12:50 4.5ft 7s 5s 11 13 mph 1019.2mb 82f 82f
vie 07/25 11:50 4ft 8s 5s 11 13 mph 1019mb 82f 82f
10:50 3.5ft 7s 5s 11 13 mph 1018.9mb 82f 82f
9:50 4.5ft 7s 5s 13 16 mph 1017.8mb 82f 82f
8:50 3.5ft 8s 5s 16 18 mph 1017.7mb 82f 81f
7:50 4ft 8s 5s 13 16 mph 1017.6mb 82f 82f
6:50 4ft 7s 6s 13 16 mph 1017.1mb 82f 82f
5:50 4ft 8s 5s 13 16 mph 1016.9mb 82f 82f
4:50 4ft 6s 6s 11 13 mph 1017.1mb 82f 80f
3:50 4.5ft 8s 6s 9 11 mph 1018.2mb 82f 80f
2:50 4.5ft 8s 6s 11 16 mph 1018.4mb 82f 78f
1:50 4ft 8s 5s 11 13 mph 1019.1mb 82f 78f
12:50 5ft 7s 5s 7 11 mph 1019.5mb 82f 77f
11:50 5ft 7s 5s 11 16 mph 1021.7mb 82f 73f
10:50 5ft 7s 5s 18 20 mph 1020.5mb 82f 74f
9:50 5ft 6s 5s 16 20 mph 1019.4mb 82f 82f
8:50 5ft 6s 5s 20 22 mph 1018.2mb 82f 82f
7:50 5ft 6s 5s 20 25 mph 1017.9mb 82f 82f
6:50 5ft 6s 5s 22 27 mph 1017.5mb 82f 82f
5:50 5.5ft 5s 5s 22 25 mph 1016.7mb 82f 82f
4:50 5ft 6s 5s 22 27 mph 1016.5mb 82f 82f
3:50 6ft 6s 5s 25 29 mph 1016mb 82f 82f
2:50 5ft 6s 5s 22 27 mph 1016.3mb 82f 82f
1:50 5ft 6s 5s 22 27 mph 1016.1mb 82f 82f
12:50 5ft 7s 5s 22 27 mph 1016.4mb 82f 82f
jue 07/24 11:50 5ft 6s 5s 22 27 mph 1016.6mb 82f 82f
9:50 4.5ft 6s 5s 22 27 mph 1016.5mb 82f 82f
8:50 4.5ft 7s 5s 20 25 mph 1016mb 82f 82f
7:50 5ft 6s 5s 22 27 mph 1015.2mb 82f 82f
6:50 5ft 7s 5s 20 25 mph 1015.1mb 82f 82f
5:50 4.5ft 5s 5s 20 25 mph 1015.4mb 82f 82f